createdAt,value
2018-12-07T00:01:53.795Z,6.13
2018-12-07T00:12:34.947Z,5.70
2018-12-07T00:17:38.159Z,5.13
2018-12-07T00:22:41.370Z,4.93
2018-12-07T00:27:44.574Z,4.33
2018-12-07T00:32:47.778Z,4.93
2018-12-07T00:37:50.978Z,4.93
2018-12-07T00:42:54.182Z,4.67
2018-12-07T00:47:58.453Z,4.10
2018-12-07T00:53:01.702Z,3.40
2018-12-07T00:58:05.078Z,3.20
2018-12-07T01:03:09.226Z,3.00
2018-12-07T01:08:12.696Z,3.27
2018-12-07T01:13:15.874Z,3.17
2018-12-07T01:18:19.162Z,3.03
2018-12-07T01:23:22.406Z,2.20
2018-12-07T01:28:25.662Z,2.73
2018-12-07T01:33:28.957Z,2.63
2018-12-07T01:38:32.195Z,1.90
2018-12-07T01:43:35.407Z,2.10
2018-12-07T01:48:38.615Z,2.10
2018-12-07T01:53:41.910Z,2.20
2018-12-07T01:58:45.134Z,1.80
2018-12-07T02:03:48.337Z,1.50
2018-12-07T02:08:51.550Z,1.73
2018-12-07T02:13:54.846Z,2.00
2018-12-07T02:18:58.130Z,1.40
2018-12-07T02:24:01.467Z,1.40
2018-12-07T02:29:04.715Z,1.40
2018-12-07T02:34:07.954Z,1.90
2018-12-07T02:39:11.199Z,1.87
2018-12-07T02:44:14.850Z,2.03
2018-12-07T02:49:18.093Z,2.30
2018-12-07T02:54:21.373Z,2.50
2018-12-07T02:59:24.555Z,2.10
2018-12-07T03:04:27.901Z,1.77
2018-12-07T03:09:31.130Z,2.30
2018-12-07T03:14:34.314Z,1.80
2018-12-07T03:19:37.498Z,2.10
2018-12-07T03:24:40.704Z,2.03
2018-12-07T03:29:43.982Z,2.00
2018-12-07T03:34:47.222Z,1.43
2018-12-07T03:39:50.402Z,1.43
2018-12-07T03:44:54.152Z,1.23
2018-12-07T03:49:57.340Z,1.47
2018-12-07T03:55:00.527Z,1.47
2018-12-07T04:00:04.300Z,1.50
2018-12-07T04:05:07.647Z,1.10
2018-12-07T04:10:10.952Z,1.07
2018-12-07T04:15:14.297Z,1.30
2018-12-07T04:20:17.586Z,1.17
2018-12-07T04:25:20.856Z,1.20
2018-12-07T04:30:27.251Z,1.33
2018-12-07T04:35:30.511Z,1.17
2018-12-07T04:40:33.770Z,1.00
2018-12-07T04:45:36.934Z,1.10
2018-12-07T04:50:40.119Z,1.20
2018-12-07T04:55:43.375Z,0.80
2018-12-07T05:00:46.563Z,1.00
2018-12-07T05:05:50.152Z,0.80
2018-12-07T05:10:53.352Z,1.17
2018-12-07T05:15:57.661Z,0.80
2018-12-07T05:21:00.855Z,0.87
2018-12-07T05:26:04.673Z,0.70
2018-12-07T05:31:07.871Z,1.20
2018-12-07T05:36:11.075Z,0.90
2018-12-07T05:41:14.256Z,0.90
2018-12-07T05:46:17.526Z,0.97
2018-12-07T05:51:20.883Z,0.63
2018-12-07T05:56:24.154Z,0.80
2018-12-07T06:01:28.358Z,0.77
2018-12-07T06:06:31.533Z,0.60
2018-12-07T06:11:35.248Z,0.70
2018-12-07T06:16:38.599Z,0.93
2018-12-07T06:21:44.086Z,0.83
2018-12-07T06:26:51.962Z,0.90
2018-12-07T06:31:59.756Z,0.70
2018-12-07T06:37:04.763Z,0.70
2018-12-07T06:42:08.050Z,0.60
2018-12-07T06:47:11.240Z,0.80
2018-12-07T06:52:14.432Z,0.97
2018-12-07T06:57:17.623Z,0.60
2018-12-07T07:02:20.879Z,0.77
2018-12-07T07:07:24.102Z,0.77
2018-12-07T07:12:29.164Z,0.73
2018-12-07T07:17:33.075Z,1.30
2018-12-07T07:22:36.322Z,0.80
2018-12-07T07:27:39.546Z,1.30
2018-12-07T07:32:42.771Z,1.33
2018-12-07T07:37:45.998Z,1.00
2018-12-07T07:42:49.231Z,1.10
2018-12-07T07:47:52.463Z,0.87
2018-12-07T07:52:55.691Z,1.20
2018-12-07T07:57:58.895Z,0.90
2018-12-07T08:03:02.421Z,0.90
2018-12-07T08:08:05.952Z,1.00
2018-12-07T08:13:09.307Z,1.00
2018-12-07T08:18:13.210Z,1.00
2018-12-07T08:23:16.451Z,0.80
2018-12-07T08:28:19.716Z,0.87
2018-12-07T08:33:22.955Z,0.80
2018-12-07T08:38:26.198Z,0.73
2018-12-07T08:43:29.439Z,0.70
2018-12-07T08:48:32.691Z,0.87
2018-12-07T08:53:35.923Z,0.60
2018-12-07T08:58:39.154Z,0.90
2018-12-07T09:03:42.714Z,0.77
2018-12-07T09:08:45.895Z,1.10
2018-12-07T09:13:50.906Z,1.03
2018-12-07T09:18:54.266Z,0.60
2018-12-07T09:23:57.649Z,0.97
2018-12-07T09:29:00.907Z,0.67
2018-12-07T09:34:04.525Z,1.00
2018-12-07T09:39:09.478Z,0.60
2018-12-07T09:44:12.668Z,0.77
2018-12-07T09:49:15.850Z,0.90
2018-12-07T09:54:19.035Z,0.90
2018-12-07T09:59:22.244Z,0.70
2018-12-07T10:04:25.458Z,0.77
2018-12-07T10:09:28.642Z,0.60
2018-12-07T10:14:31.851Z,1.00
2018-12-07T10:19:35.051Z,0.90
2018-12-07T10:24:38.244Z,0.83
2018-12-07T10:29:41.441Z,0.87
2018-12-07T10:34:45.295Z,0.73
2018-12-07T10:39:48.535Z,1.17
2018-12-07T10:44:51.755Z,0.70
2018-12-07T10:49:54.979Z,0.70
2018-12-07T10:54:58.221Z,0.80
2018-12-07T11:00:01.574Z,0.83
2018-12-07T11:05:10.522Z,0.83
2018-12-07T11:10:19.102Z,0.70
2018-12-07T11:15:27.907Z,0.73
2018-12-07T11:20:36.615Z,0.87
2018-12-07T11:25:45.306Z,0.80
2018-12-07T11:30:54.014Z,0.70
2018-12-07T11:35:57.277Z,0.90
2018-12-07T11:41:00.465Z,0.73
2018-12-07T11:46:03.703Z,0.77
2018-12-07T11:51:07.102Z,1.33
2018-12-07T11:56:10.337Z,1.10
2018-12-07T12:01:13.705Z,0.83
2018-12-07T12:06:16.936Z,0.93
2018-12-07T12:11:20.214Z,0.73
2018-12-07T12:16:23.387Z,1.00
2018-12-07T12:21:26.692Z,1.07
2018-12-07T12:26:29.984Z,0.97
2018-12-07T12:31:33.268Z,0.90
2018-12-07T12:36:36.439Z,1.07
2018-12-07T12:41:46.577Z,1.00
2018-12-07T12:46:44.859Z,1.40
2018-12-07T12:51:48.047Z,1.00
2018-12-07T12:56:51.438Z,1.00
2018-12-07T13:01:54.656Z,0.90
2018-12-07T13:06:57.918Z,1.17
2018-12-07T13:12:01.139Z,0.77
2018-12-07T13:17:04.371Z,0.80
2018-12-07T13:22:07.614Z,0.93
2018-12-07T13:27:12.678Z,1.03
2018-12-07T13:32:16.087Z,1.00
2018-12-07T13:37:19.410Z,0.80
2018-12-07T13:42:22.794Z,0.90
2018-12-07T13:47:26.231Z,0.90
2018-12-07T13:52:29.712Z,0.70
2018-12-07T13:57:33.147Z,1.07
2018-12-07T14:02:36.826Z,1.03
2018-12-07T14:07:40.152Z,0.77
2018-12-07T14:12:43.496Z,0.80
2018-12-07T14:17:46.923Z,0.80
2018-12-07T14:22:50.494Z,0.97
2018-12-07T14:27:53.910Z,1.00
2018-12-07T14:32:57.568Z,0.80
2018-12-07T14:38:01.177Z,1.50
2018-12-07T14:43:04.661Z,0.90
2018-12-07T14:48:08.158Z,0.70
2018-12-07T14:53:11.576Z,0.97
2018-12-07T14:58:15.239Z,1.40
2018-12-07T15:03:18.700Z,0.67
2018-12-07T15:08:22.061Z,0.93
2018-12-07T15:13:25.290Z,1.10
2018-12-07T15:18:28.943Z,0.70
2018-12-07T15:23:32.207Z,0.60
2018-12-07T15:28:35.489Z,0.70
2018-12-07T15:33:39.074Z,0.70
2018-12-07T15:38:42.366Z,0.83
2018-12-07T15:43:45.729Z,0.60
2018-12-07T15:48:49.735Z,0.60
2018-12-07T15:53:53.187Z,0.60
2018-12-07T15:58:56.647Z,0.50
2018-12-07T16:03:59.889Z,0.80
2018-12-07T16:09:05.434Z,0.70
2018-12-07T16:14:09.024Z,0.50
2018-12-07T16:19:12.365Z,0.70
2018-12-07T16:24:15.798Z,0.63
2018-12-07T16:29:19.109Z,0.70
2018-12-07T16:34:22.587Z,0.60
2018-12-07T16:39:26.031Z,0.50
2018-12-07T16:44:29.494Z,0.90
2018-12-07T16:49:32.863Z,0.73
2018-12-07T16:54:38.036Z,0.57
2018-12-07T16:59:41.848Z,0.60
2018-12-07T17:04:45.480Z,0.87
2018-12-07T17:09:48.873Z,0.63
2018-12-07T17:14:52.219Z,0.60
2018-12-07T17:19:55.702Z,0.80
2018-12-07T17:24:59.064Z,0.60
2018-12-07T17:30:02.500Z,0.70
2018-12-07T17:35:05.983Z,2.40
2018-12-07T17:40:09.521Z,1.40
2018-12-07T17:45:13.057Z,0.90
2018-12-07T17:50:16.282Z,1.17
2018-12-07T17:55:19.545Z,0.70
2018-12-07T18:00:23.441Z,1.07
2018-12-07T18:05:26.922Z,0.60
2018-12-07T18:10:30.310Z,0.60
2018-12-07T18:15:34.489Z,0.60
2018-12-07T18:20:38.205Z,0.83
2018-12-07T18:25:41.824Z,0.50
2018-12-07T18:30:49.615Z,0.57
2018-12-07T18:35:53.317Z,0.60
2018-12-07T18:40:56.745Z,0.60
2018-12-07T18:46:00.189Z,0.90
2018-12-07T18:51:03.617Z,1.33
2018-12-07T18:56:07.065Z,0.80
2018-12-07T19:01:10.616Z,0.80
2018-12-07T19:06:15.167Z,0.67
2018-12-07T19:11:19.654Z,0.80
2018-12-07T19:16:23.259Z,0.60
2018-12-07T19:21:27.261Z,0.90
2018-12-07T19:26:30.907Z,0.90
2018-12-07T19:31:34.277Z,0.70
2018-12-07T19:36:37.693Z,0.63
2018-12-07T19:41:41.293Z,0.70
2018-12-07T19:46:44.847Z,0.80
2018-12-07T19:51:48.435Z,0.70
2018-12-07T19:56:51.898Z,0.97
2018-12-07T20:01:55.528Z,0.70
2018-12-07T20:06:59.073Z,0.70
2018-12-07T20:12:02.606Z,0.80
2018-12-07T20:17:06.149Z,1.13
2018-12-07T20:22:09.709Z,1.03
2018-12-07T20:27:13.286Z,1.20
2018-12-07T20:32:17.003Z,1.07
2018-12-07T20:37:20.691Z,1.17
2018-12-07T20:42:24.216Z,1.37
2018-12-07T20:47:28.609Z,0.77
2018-12-07T20:52:31.919Z,1.17
2018-12-07T20:57:35.258Z,1.30
2018-12-07T21:02:38.631Z,0.90
2018-12-07T21:07:58.794Z,2.00
2018-12-07T21:13:19.670Z,1.50
2018-12-07T21:18:22.958Z,1.70
2018-12-07T21:23:26.266Z,2.60
2018-12-07T21:28:29.618Z,2.40
2018-12-07T21:34:41.948Z,2.20
2018-12-07T21:39:50.969Z,2.07
2018-12-07T21:44:54.479Z,2.50
2018-12-07T21:50:07.323Z,2.03
2018-12-07T21:55:10.705Z,2.97
2018-12-07T22:00:14.489Z,2.80
2018-12-07T22:05:17.905Z,2.03
2018-12-07T22:10:21.146Z,2.33
2018-12-07T22:15:24.346Z,2.30
2018-12-07T22:20:27.551Z,2.67
2018-12-07T22:25:31.180Z,3.27
2018-12-07T22:30:34.604Z,2.80
2018-12-07T22:35:38.090Z,2.70
2018-12-07T22:40:41.608Z,2.63
2018-12-07T22:45:45.271Z,3.00
2018-12-07T22:50:48.523Z,3.10
2018-12-07T22:55:51.717Z,3.10
2018-12-07T23:00:56.051Z,3.23
2018-12-07T23:05:59.234Z,3.23
2018-12-07T23:11:02.510Z,2.67
2018-12-07T23:16:05.854Z,2.97
2018-12-07T23:21:09.059Z,2.47
2018-12-07T23:26:12.351Z,2.90
2018-12-07T23:31:15.557Z,3.90
2018-12-07T23:36:18.894Z,2.97
2018-12-07T23:41:22.175Z,3.60
2018-12-07T23:46:25.367Z,3.07
2018-12-07T23:51:28.586Z,3.10
2018-12-07T23:56:31.861Z,2.37
